YVR weather

Vancouver International Airport
Vancouver, British Columbia, Canada

Public forecast

Using degrees Celsius for public forecast. Weather courtesy of forecast.io.

METAR (pilot weather report)

Retrieved 2019/04/21 12:00 UTC (25 minutes ago):

CYVR 211200Z 08006KT 30SM FEW120 08/05 A3020 RMK AC1 AC TR SLP229

TAF (pilot weather forecast)

Retrieved 2019/04/21 12:39 UTC (0 seconds ago):

TAF CYVR 211138Z 2112/2218 09008KT P6SM FEW240 FM211400 09010KT P6SM FEW020 SCT040 FM211900 10012KT P6SM FEW040 SCT120 FM220300 12010KT P6SM FEW050 BKN090 FM221200 09008KT P6SM -RA BKN030 OVC050 RMK NXT FCST BY 211500Z